Time;durP1;ratioP1;P1;durP2;ratioP2;P2;SDS_P1;SDS_P2;PMS_P1;PMS_P2;Temp;Humidity;BMP_temperature;BMP_pressure;BME280_temperature;BME280_humidity;BME280_pressure;Samples;Min_cycle;Max_cycle;Signal;HPM_P1;HPM_P2
2022/12/11 00:01:51;;;;;;;29.95;11.18;;;5.70;71.40;;;;;;7411093;19;20035;-89
2022/12/11 00:04:20;;;;;;;30.23;11.25;;;5.70;71.70;;;;;;7410277;19;20018;-89
2022/12/11 00:06:49;;;;;;;26.30;11.48;;;5.80;72.00;;;;;;7397834;19;20014;-88
2022/12/11 00:09:22;;;;;;;30.67;11.25;;;5.70;72.20;;;;;;7391733;19;20015;-88
2022/12/11 00:11:51;;;;;;;28.25;11.20;;;5.60;71.50;;;;;;7398272;19;20044;-88
2022/12/11 00:14:20;;;;;;;26.10;10.55;;;5.60;71.70;;;;;;7413014;19;20352;-87
2022/12/11 00:16:50;;;;;;;24.55;10.73;;;5.60;71.90;;;;;;7384357;19;20654;-84
2022/12/11 00:19:18;;;;;;;30.63;10.93;;;5.60;72.00;;;;;;7390654;19;20017;-89
2022/12/11 00:21:47;;;;;;;23.95;10.20;;;5.60;72.10;;;;;;7388927;19;20019;-89
2022/12/11 00:24:16;;;;;;;24.50;10.85;;;5.60;71.70;;;;;;7384407;19;20118;-90
2022/12/11 00:26:47;;;;;;;32.25;11.85;;;5.60;72.10;;;;;;7403509;19;20018;-90
2022/12/11 00:29:16;;;;;;;;;;;5.60;72.40;;;;;;7385137;19;20054;-89
2022/12/11 00:31:45;;;;;;;25.70;11.30;;;5.70;72.40;;;;;;7377211;19;19926;-90
2022/12/11 00:34:20;;;;;;;30.20;11.23;;;5.70;72.50;;;;;;7381224;19;20082;-90
2022/12/11 00:36:49;;;;;;;35.35;11.60;;;5.70;72.40;;;;;;7382844;19;20043;-89
2022/12/11 00:39:18;;;;;;;41.65;12.10;;;5.70;72.40;;;;;;7374002;19;20018;-90
2022/12/11 00:41:49;;;;;;;32.30;12.13;;;5.70;72.40;;;;;;7400013;19;20025;-90
2022/12/11 00:44:18;;;;;;;35.83;12.32;;;5.80;72.90;;;;;;7381574;19;20055;-90
2022/12/11 00:46:47;;;;;;;26.88;12.85;;;5.80;72.70;;;;;;7380253;19;20022;-90
2022/12/11 00:49:16;;;;;;;25.33;11.63;;;5.80;72.80;;;;;;7374096;19;20051;-90
2022/12/11 00:51:44;;;;;;;30.23;11.50;;;5.80;73.10;;;;;;7376940;19;20395;-89
2022/12/11 00:54:13;;;;;;;30.60;10.55;;;5.90;72.80;;;;;;7377723;19;20022;-90
2022/12/11 00:56:42;;;;;;;22.05;10.65;;;5.90;72.50;;;;;;7396705;19;20162;-90
2022/12/11 00:59:13;;;;;;;20.25;9.25;;;5.80;72.00;;;;;;7377622;19;20392;-90
2022/12/11 01:01:42;;;;;;;;;;;5.80;71.60;;;;;;7376889;19;20010;-90
2022/12/11 01:04:11;;;;;;;19.55;8.38;;;5.80;71.60;;;;;;7378506;19;19922;-90
2022/12/11 01:06:40;;;;;;;20.15;8.77;;;5.80;71.60;;;;;;7381417;19;20019;-90
2022/12/11 01:11:51;;;;;;;22.13;9.25;;;5.80;71.80;;;;;;7384675;19;20007;-87
2022/12/11 01:14:22;;;;;;;25.17;10.02;;;5.80;71.70;;;;;;7399423;19;20018;-90
2022/12/11 01:16:51;;;;;;;;;;;5.80;71.90;;;;;;7380422;19;20044;-90
2022/12/11 01:19:20;;;;;;;23.20;9.20;;;5.90;72.00;;;;;;7377448;19;20333;-88
2022/12/11 01:21:48;;;;;;;23.83;10.45;;;5.70;71.70;;;;;;7379150;19;20085;-88
2022/12/11 01:24:17;;;;;;;23.00;10.35;;;5.70;72.20;;;;;;7382457;19;20010;-88
2022/12/11 01:26:46;;;;;;;23.75;10.02;;;5.70;72.30;;;;;;7409584;19;20036;-88
2022/12/11 01:29:15;;;;;;;22.13;9.18;;;5.80;72.30;;;;;;7405592;19;20014;-88
2022/12/11 01:31:46;;;;;;;21.45;9.20;;;5.70;71.90;;;;;;7403716;19;20010;-90
2022/12/11 01:34:15;;;;;;;;;;;5.70;71.90;;;;;;7391138;19;19926;-89
2022/12/11 01:36:43;;;;;;;25.23;9.32;;;5.70;72.10;;;;;;7393474;19;19922;-90
2022/12/11 01:39:12;;;;;;;24.08;9.80;;;5.60;72.20;;;;;;7397376;19;20095;-89
2022/12/11 01:41:41;;;;;;;21.55;10.32;;;5.60;72.50;;;;;;7422892;19;20014;-89
2022/12/11 01:44:45;;;;;;;18.08;8.13;;;5.70;72.70;;;;;;7389085;19;20040;-90
2022/12/11 01:47:16;;;;;;;22.85;8.30;;;5.60;71.60;;;;;;7386056;19;20037;-90
2022/12/11 01:49:45;;;;;;;;;;;5.50;71.20;;;;;;7381016;19;20030;-91
2022/12/11 01:52:18;;;;;;;16.15;7.50;;;5.50;71.10;;;;;;7381286;19;19935;-91
2022/12/11 01:54:47;;;;;;;18.40;8.25;;;5.40;71.40;;;;;;7382013;19;20576;-91
2022/12/11 01:57:17;;;;;;;19.92;7.90;;;5.40;72.00;;;;;;7384062;19;20032;-91
2022/12/11 01:59:48;;;;;;;19.50;8.43;;;5.50;72.30;;;;;;7407026;19;20041;-90
2022/12/11 02:02:24;;;;;;;20.95;8.70;;;5.50;72.40;;;;;;7387089;19;20035;-90
2022/12/11 02:04:52;;;;;;;20.85;9.23;;;5.50;72.60;;;;;;7383597;19;20022;-90
2022/12/11 02:07:21;;;;;;;21.38;8.70;;;5.60;72.60;;;;;;7380603;19;20151;-90
2022/12/11 02:09:51;;;;;;;17.55;8.27;;;5.60;72.50;;;;;;7380942;19;20014;-90
2022/12/11 02:12:27;;;;;;;15.77;7.70;;;5.60;72.00;;;;;;7380471;19;20371;-90
2022/12/11 02:15:04;;;;;;;18.33;8.15;;;5.50;71.60;;;;;;7378923;19;20774;-90
2022/12/11 02:17:42;;;;;;;20.27;7.95;;;5.50;71.80;;;;;;7407771;19;20014;-90
2022/12/11 02:20:17;;;;;;;13.52;6.65;;;5.50;71.80;;;;;;7386750;19;20022;-90
2022/12/11 02:23:04;;;;;;;23.00;7.22;;;5.40;71.30;;;;;;7389720;19;20014;-89
2022/12/11 02:25:38;;;;;;;16.80;7.90;;;5.30;71.50;;;;;;7383516;19;20015;-91
2022/12/11 02:28:20;;;;;;;16.75;7.50;;;5.20;71.70;;;;;;7393810;19;20021;-90
2022/12/11 02:30:53;;;;;;;22.13;8.68;;;5.30;72.30;;;;;;7383084;19;20018;-88
2022/12/11 02:33:25;;;;;;;16.85;8.10;;;5.30;72.30;;;;;;7379312;19;20089;-90
2022/12/11 02:35:55;;;;;;;23.67;8.57;;;5.40;73.10;;;;;;7382562;19;20018;-89
2022/12/11 02:38:30;;;;;;;20.13;8.75;;;5.40;72.20;;;;;;7405193;19;20010;-90
2022/12/11 02:41:01;;;;;;;21.20;8.40;;;5.50;72.50;;;;;;7378838;19;20014;-90
2022/12/11 02:43:34;;;;;;;21.23;8.48;;;5.50;72.30;;;;;;7378342;19;20035;-90
2022/12/11 02:46:06;;;;;;;18.20;8.82;;;5.50;71.90;;;;;;7383489;19;20111;-91
2022/12/11 02:48:36;;;;;;;21.38;8.18;;;5.60;72.20;;;;;;7391810;19;20018;-92
2022/12/11 02:51:08;;;;;;;18.80;8.25;;;5.50;71.90;;;;;;7395589;19;20002;-85
2022/12/11 02:53:41;;;;;;;19.30;8.02;;;5.60;72.00;;;;;;7427115;19;20053;-93
2022/12/11 02:56:15;;;;;;;20.60;7.80;;;5.50;72.00;;;;;;7404806;19;20049;-91
2022/12/11 02:58:50;;;;;;;16.58;7.07;;;5.50;71.90;;;;;;7391200;19;20426;-91
2022/12/11 03:01:19;;;;;;;13.88;6.63;;;5.50;71.50;;;;;;7389521;19;20015;-92
2022/12/11 03:03:50;;;;;;;22.33;8.40;;;5.50;71.30;;;;;;7392838;19;20018;-92
2022/12/11 03:06:24;;;;;;;20.00;8.00;;;5.40;71.30;;;;;;7391995;19;20010;-89
2022/12/11 03:08:53;;;;;;;14.80;6.45;;;5.40;71.50;;;;;;7383801;19;20033;-89
2022/12/11 03:11:22;;;;;;;21.20;6.55;;;5.40;71.30;;;;;;7402801;19;20015;-90
2022/12/11 03:13:55;;;;;;;12.48;6.15;;;5.40;71.70;;;;;;7386096;19;20047;-90
2022/12/11 03:16:32;;;;;;;11.63;6.03;;;5.30;71.50;;;;;;7389909;19;20015;-90
2022/12/11 03:19:10;;;;;;;11.48;5.55;;;5.40;71.70;;;;;;7391320;19;20043;-89
2022/12/11 03:21:46;;;;;;;8.82;4.75;;;5.40;71.80;;;;;;7384537;19;20018;-89
2022/12/11 03:24:20;;;;;;;10.80;5.45;;;5.30;71.20;;;;;;7386588;19;20592;-89
2022/12/11 03:26:55;;;;;;;12.98;6.68;;;5.20;71.00;;;;;;7410242;19;20350;-80
2022/12/11 03:29:31;;;;;;;13.02;6.15;;;5.10;71.60;;;;;;7411778;19;20011;-90
2022/12/11 03:32:05;;;;;;;13.45;6.05;;;5.20;72.00;;;;;;7394974;19;20023;-90
2022/12/11 03:34:38;;;;;;;15.57;6.55;;;5.20;71.80;;;;;;7393397;19;20023;-90
2022/12/11 03:37:09;;;;;;;13.68;6.18;;;5.30;71.80;;;;;;7393747;19;20105;-90
2022/12/11 03:39:41;;;;;;;17.40;7.22;;;5.30;72.10;;;;;;7392759;19;20324;-90
2022/12/11 03:42:14;;;;;;;17.17;7.50;;;5.30;72.20;;;;;;7395211;19;20032;-90
2022/12/11 03:44:49;;;;;;;17.80;6.70;;;5.30;72.10;;;;;;7415585;19;20023;-90
2022/12/11 03:47:21;;;;;;;26.00;8.15;;;5.30;72.10;;;;;;7398764;19;20011;-89
2022/12/11 03:49:51;;;;;;;17.58;7.03;;;5.30;72.30;;;;;;7411724;19;20003;-91
2022/12/11 03:52:21;;;;;;;15.67;6.67;;;5.30;71.90;;;;;;7407370;19;20013;-91
2022/12/11 03:54:52;;;;;;;11.30;6.00;;;5.30;72.00;;;;;;7388602;19;20248;-91
2022/12/11 03:57:24;;;;;;;11.25;5.93;;;5.30;71.90;;;;;;7394138;19;20011;-90
2022/12/11 03:59:55;;;;;;;15.68;6.45;;;5.30;71.30;;;;;;7387963;19;20022;-89
2022/12/11 04:02:24;;;;;;;;;;;5.10;71.30;;;;;;7411031;19;20014;-91
2022/12/11 04:04:53;;;;;;;13.27;6.28;;;5.00;71.90;;;;;;7394821;19;19910;-90
2022/12/11 04:07:21;;;;;;;15.02;6.65;;;5.00;72.20;;;;;;7394909;19;20043;-90
2022/12/11 04:09:50;;;;;;;14.70;6.78;;;5.10;72.50;;;;;;7394156;19;20007;-90
2022/12/11 04:12:19;;;;;;;17.02;8.18;;;5.20;72.60;;;;;;7393822;19;20010;-91
2022/12/11 04:15:03;;;;;;;18.73;8.55;;;5.20;72.30;;;;;;7425995;19;20018;-89
2022/12/11 04:25:41;;;;;;;19.70;7.72;;;5.20;71.30;;;;;;7385262;19;20022;-90
2022/12/11 04:28:10;;;;;;;17.15;6.80;;;5.10;71.10;;;;;;7385625;19;20015;-91
2022/12/11 04:30:39;;;;;;;20.15;6.80;;;4.90;71.30;;;;;;7391383;19;20007;-90
2022/12/11 04:33:10;;;;;;;14.50;6.82;;;4.90;71.60;;;;;;7403247;19;20018;-90
2022/12/11 04:35:38;;;;;;;;;;;4.90;71.80;;;;;;7427946;19;20027;-90
2022/12/11 04:38:07;;;;;;;18.08;6.75;;;4.90;71.90;;;;;;7395500;19;20255;-91
2022/12/11 04:40:36;;;;;;;16.17;8.00;;;4.90;72.00;;;;;;7387458;19;20035;-91
2022/12/11 04:43:05;;;;;;;22.38;8.32;;;5.00;72.20;;;;;;7386770;19;20074;-91
2022/12/11 04:45:34;;;;;;;21.67;8.02;;;5.00;72.40;;;;;;7383893;19;20018;-91
2022/12/11 04:48:02;;;;;;;17.50;7.65;;;5.00;72.20;;;;;;7379920;19;20450;-90
2022/12/11 04:50:34;;;;;;;16.45;6.88;;;5.10;72.40;;;;;;7402680;19;20123;-90
2022/12/11 04:53:02;;;;;;;;;;;5.10;71.50;;;;;;7381633;19;20013;-89
2022/12/11 04:55:31;;;;;;;15.93;7.10;;;5.00;70.90;;;;;;7390909;19;19998;-91
2022/12/11 04:58:00;;;;;;;16.77;7.05;;;4.90;71.40;;;;;;7407597;19;20002;-92
2022/12/11 05:00:28;;;;;;;16.85;6.97;;;4.90;71.90;;;;;;7405766;19;20018;-91
2022/12/11 05:02:57;;;;;;;25.60;8.10;;;4.90;72.10;;;;;;7388626;19;20036;-92
2022/12/11 05:05:26;;;;;;;25.05;9.60;;;5.00;73.20;;;;;;7402493;19;20043;-91
2022/12/11 05:07:57;;;;;;;27.10;11.35;;;5.00;72.40;;;;;;7382510;19;20062;-91
2022/12/11 05:10:26;;;;;;;;;;;5.10;72.70;;;;;;7383639;19;20018;-91
2022/12/11 05:12:54;;;;;;;19.80;8.65;;;5.10;72.70;;;;;;7384055;19;19923;-92
2022/12/11 05:15:23;;;;;;;23.77;8.55;;;5.10;72.60;;;;;;7385179;19;20021;-91
2022/12/11 05:17:52;;;;;;;17.85;8.05;;;5.20;72.70;;;;;;7389162;19;20022;-90
2022/12/11 05:20:21;;;;;;;15.02;7.35;;;5.30;72.30;;;;;;7410466;19;20015;-92
2022/12/11 05:22:50;;;;;;;15.88;7.65;;;5.20;71.60;;;;;;7391161;19;20023;-91
2022/12/11 05:25:21;;;;;;;21.33;8.30;;;5.10;71.10;;;;;;7394621;19;20011;-91
2022/12/11 05:27:50;;;;;;;18.52;8.02;;;4.90;71.60;;;;;;7395213;19;20090;-92
2022/12/11 05:30:19;;;;;;;17.83;8.57;;;4.90;71.80;;;;;;7390954;19;20024;-92
2022/12/11 05:32:48;;;;;;;20.33;9.02;;;5.00;72.40;;;;;;7421980;19;20427;-91
2022/12/11 05:35:16;;;;;;;20.63;8.73;;;5.10;72.50;;;;;;7394499;19;20383;-90
2022/12/11 05:37:45;;;;;;;19.95;9.23;;;5.00;72.10;;;;;;7403307;19;20014;-90
2022/12/11 05:40:14;;;;;;;19.98;7.90;;;5.00;71.50;;;;;;7408281;19;20027;-90
2022/12/11 05:42:45;;;;;;;21.85;8.88;;;4.90;71.70;;;;;;7397337;19;20010;-89
2022/12/11 05:45:14;;;;;;;;;;;4.90;71.60;;;;;;7380562;19;20030;-90
2022/12/11 05:47:43;;;;;;;21.33;8.50;;;5.00;71.90;;;;;;7399409;19;20497;-91
2022/12/11 05:50:12;;;;;;;25.10;9.20;;;4.90;72.90;;;;;;7383135;19;20019;-91
2022/12/11 05:52:41;;;;;;;25.20;9.23;;;4.80;71.80;;;;;;7390478;19;20494;-90
2022/12/11 05:55:11;;;;;;;22.48;9.07;;;4.50;72.10;;;;;;7387144;19;20014;-90
2022/12/11 05:57:40;;;;;;;26.87;9.50;;;4.50;72.50;;;;;;7380215;19;20014;-89
2022/12/11 06:00:15;;;;;;;23.50;9.73;;;4.60;72.90;;;;;;7377351;19;20976;-89
2022/12/11 06:02:44;;;;;;;27.80;9.95;;;4.60;72.90;;;;;;7413713;19;20044;-90
2022/12/11 06:05:16;;;;;;;25.13;10.30;;;4.70;73.70;;;;;;7394439;19;20010;-90
2022/12/11 06:07:44;;;;;;;26.23;10.35;;;4.60;72.50;;;;;;7384788;19;20010;-89
2022/12/11 06:10:13;;;;;;;27.35;10.57;;;4.60;72.20;;;;;;7380931;19;20046;-89
2022/12/11 06:12:42;;;;;;;25.58;10.35;;;4.60;72.10;;;;;;7393163;19;20051;-90
2022/12/11 06:15:12;;;;;;;27.98;10.55;;;4.40;71.90;;;;;;7391809;19;20004;-88
2022/12/11 06:17:43;;;;;;;26.42;11.65;;;4.50;72.40;;;;;;7415386;19;20014;-90
2022/12/11 06:20:12;;;;;;;;;;;4.50;72.20;;;;;;7400279;19;20021;-89
2022/12/11 06:22:41;;;;;;;30.52;10.60;;;4.50;72.20;;;;;;7399914;19;19926;-89
2022/12/11 06:25:11;;;;;;;32.25;11.75;;;4.40;72.10;;;;;;7397072;19;20032;-90
2022/12/11 06:27:41;;;;;;;32.55;11.90;;;4.40;72.20;;;;;;7397537;19;20022;-90
2022/12/11 06:30:12;;;;;;;35.55;13.32;;;4.40;72.20;;;;;;7399250;19;20023;-90
2022/12/11 06:32:43;;;;;;;31.92;13.60;;;4.40;72.60;;;;;;7418484;19;20022;-90
2022/12/11 06:35:11;;;;;;;;;;;4.40;72.90;;;;;;7395036;19;20014;-90
2022/12/11 06:37:41;;;;;;;38.22;13.32;;;4.50;73.20;;;;;;7392757;19;19929;-89
2022/12/11 06:40:12;;;;;;;48.17;16.17;;;4.60;73.20;;;;;;7379466;19;20014;-89
2022/12/11 06:42:42;;;;;;;39.47;16.52;;;4.70;73.00;;;;;;7378810;19;20022;-88
2022/12/11 06:45:12;;;;;;;46.17;16.23;;;4.70;72.50;;;;;;7375098;19;19996;-88
2022/12/11 06:47:43;;;;;;;47.77;17.33;;;4.80;72.70;;;;;;7396666;19;20027;-87
2022/12/11 06:50:12;;;;;;;;;;;4.80;71.90;;;;;;7376153;19;20074;-87
2022/12/11 06:52:41;;;;;;;50.95;16.42;;;4.80;71.80;;;;;;7381860;19;19974;-89
2022/12/11 06:55:10;;;;;;;47.50;18.25;;;4.70;71.40;;;;;;7378855;19;20035;-89
2022/12/11 06:57:39;;;;;;;45.28;17.40;;;4.80;71.50;;;;;;7387949;19;20018;-88
2022/12/11 07:00:09;;;;;;;44.80;18.35;;;4.70;71.30;;;;;;7394314;19;20035;-88
2022/12/11 07:02:38;;;;;;;52.47;18.92;;;4.60;71.40;;;;;;7421188;19;20010;-87
2022/12/11 07:05:10;;;;;;;50.78;19.00;;;4.60;71.30;;;;;;7386214;19;20018;-89
2022/12/11 07:07:39;;;;;;;44.88;17.83;;;4.50;72.40;;;;;;7383629;19;20032;-89
2022/12/11 07:10:09;;;;;;;47.28;18.25;;;4.50;71.60;;;;;;7381640;19;20014;-90
2022/12/11 07:12:38;;;;;;;45.05;18.65;;;4.60;71.90;;;;;;7378617;19;20015;-88
2022/12/11 07:15:08;;;;;;;49.33;19.63;;;4.60;71.60;;;;;;7381002;19;20018;-91
2022/12/11 07:17:37;;;;;;;56.13;20.33;;;4.70;71.60;;;;;;7404833;19;20035;-92
2022/12/11 07:20:10;;;;;;;46.85;18.77;;;4.70;71.20;;;;;;7376278;19;20018;-87
2022/12/11 07:22:38;;;;;;;56.33;20.75;;;4.50;70.90;;;;;;7375090;19;20089;-86
2022/12/11 07:25:08;;;;;;;53.58;20.38;;;4.10;71.60;;;;;;7378054;19;20058;-87
2022/12/11 07:27:37;;;;;;;54.17;20.25;;;4.20;72.30;;;;;;7375670;19;20027;-87
2022/12/11 07:30:06;;;;;;;60.10;20.35;;;4.30;72.50;;;;;;7376448;19;20022;-86
2022/12/11 07:32:35;;;;;;;54.97;19.33;;;4.20;72.00;;;;;;7404300;19;20027;-86
2022/12/11 07:35:04;;;;;;;55.63;20.75;;;4.30;72.20;;;;;;7375644;19;20041;-86
2022/12/11 07:37:37;;;;;;;58.53;21.85;;;4.20;72.20;;;;;;7387147;19;20022;-87
2022/12/11 07:40:06;;;;;;;49.25;19.98;;;4.30;72.80;;;;;;7383517;19;20011;-87
2022/12/11 07:42:35;;;;;;;53.13;20.88;;;4.40;72.80;;;;;;7384019;19;20015;-87
2022/12/11 07:45:04;;;;;;;47.58;21.15;;;4.50;72.60;;;;;;7381037;19;20011;-86
2022/12/11 07:47:32;;;;;;;54.63;21.10;;;4.70;72.50;;;;;;7399016;19;20018;-87
2022/12/11 07:50:01;;;;;;;44.60;19.35;;;4.70;72.20;;;;;;7374526;19;20010;-85
2022/12/11 07:52:30;;;;;;;49.30;19.65;;;4.70;71.70;;;;;;7371342;19;20035;-87
2022/12/11 07:55:02;;;;;;;47.25;19.00;;;4.80;71.60;;;;;;7368190;19;20032;-86
2022/12/11 07:57:30;;;;;;;52.15;19.90;;;4.80;71.60;;;;;;7372503;19;20045;-87
2022/12/11 07:59:59;;;;;;;51.30;19.33;;;4.90;71.60;;;;;;7378748;19;20126;-87
2022/12/11 08:02:28;;;;;;;43.40;17.63;;;4.90;71.20;;;;;;7403777;19;20021;-87
2022/12/11 08:04:57;;;;;;;43.10;18.13;;;4.90;70.70;;;;;;7377425;19;20545;-87
2022/12/11 08:07:26;;;;;;;48.90;18.42;;;4.90;70.50;;;;;;7378543;19;20078;-87
2022/12/11 08:09:54;;;;;;;47.08;19.08;;;4.90;70.60;;;;;;7378438;19;20439;-87
2022/12/11 08:12:26;;;;;;;44.30;18.05;;;4.90;71.20;;;;;;7377940;19;20014;-88
2022/12/11 08:14:54;;;;;;;;;;;5.00;71.30;;;;;;7380953;19;20123;-87
2022/12/11 08:17:23;;;;;;;49.60;18.42;;;5.00;71.10;;;;;;7416581;19;20197;-89
2022/12/11 08:19:51;;;;;;;52.08;19.48;;;5.00;71.10;;;;;;7388715;19;20006;-89
2022/12/11 08:22:20;;;;;;;67.65;20.85;;;5.00;71.20;;;;;;7387837;19;20014;-88
2022/12/11 08:24:49;;;;;;;59.90;20.27;;;5.10;71.30;;;;;;7399721;19;20018;-88
2022/12/11 08:27:18;;;;;;;51.75;22.30;;;5.10;71.10;;;;;;7401199;19;20014;-88
2022/12/11 08:29:49;;;;;;;55.38;21.13;;;5.20;71.20;;;;;;7407840;19;20019;-89
2022/12/11 08:32:18;;;;;;;;;;;5.20;71.10;;;;;;7382946;19;20015;-89
2022/12/11 08:34:46;;;;;;;45.92;18.00;;;5.20;71.10;;;;;;7380708;19;19939;-90
2022/12/11 08:37:15;;;;;;;53.40;21.25;;;5.30;70.90;;;;;;7382976;19;20032;-89
2022/12/11 08:39:45;;;;;;;53.25;19.90;;;5.30;71.90;;;;;;7383134;19;20040;-90
2022/12/11 08:42:14;;;;;;;53.25;20.60;;;5.30;70.90;;;;;;7384825;19;20040;-88
2022/12/11 08:44:43;;;;;;;53.80;21.23;;;5.30;70.50;;;;;;7408664;19;20129;-88
2022/12/11 08:47:14;;;;;;;49.85;19.65;;;5.30;70.50;;;;;;7379991;19;20058;-88
2022/12/11 08:49:43;;;;;;;47.83;19.92;;;5.30;70.70;;;;;;7380980;19;20652;-88
2022/12/11 08:52:12;;;;;;;73.60;21.00;;;5.40;70.90;;;;;;7385614;19;20122;-88
2022/12/11 08:54:41;;;;;;;43.80;17.77;;;5.40;70.70;;;;;;7383906;19;20440;-88
2022/12/11 08:57:09;;;;;;;47.53;18.25;;;5.40;70.10;;;;;;7394323;19;20024;-87
2022/12/11 08:59:38;;;;;;;40.97;17.27;;;5.40;70.00;;;;;;7413912;19;20035;-87
2022/12/11 09:02:07;;;;;;;45.58;18.33;;;5.30;69.80;;;;;;7386311;19;20027;-87
2022/12/11 09:04:39;;;;;;;38.47;17.52;;;5.30;69.90;;;;;;7382224;19;20031;-88
2022/12/11 09:07:07;;;;;;;48.33;18.00;;;5.30;69.70;;;;;;7379417;19;20053;-88
2022/12/11 09:09:36;;;;;;;42.80;16.92;;;5.30;69.40;;;;;;7378438;19;20090;-88
2022/12/11 09:12:06;;;;;;;70.30;16.70;;;5.30;69.30;;;;;;7376783;19;20047;-86
2022/12/11 09:14:35;;;;;;;44.75;16.25;;;5.30;69.40;;;;;;7399829;19;20015;-88
2022/12/11 09:17:05;;;;;;;38.13;16.23;;;5.30;69.50;;;;;;7377405;19;20110;-88
2022/12/11 09:19:34;;;;;;;40.83;17.33;;;5.20;69.10;;;;;;7379218;19;20699;-88
2022/12/11 09:22:05;;;;;;;33.67;14.48;;;5.20;69.60;;;;;;7382963;19;20018;-87
2022/12/11 09:24:34;;;;;;;;;;;5.20;69.60;;;;;;7380594;19;20007;-88
2022/12/11 09:27:02;;;;;;;36.13;13.90;;;5.30;69.50;;;;;;7378845;19;19953;-89
2022/12/11 09:29:31;;;;;;;35.33;14.40;;;5.20;68.90;;;;;;7398450;19;20018;-88
2022/12/11 09:32:00;;;;;;;35.45;15.38;;;5.30;70.00;;;;;;7381265;19;20019;-89
2022/12/11 09:34:29;;;;;;;36.85;15.43;;;5.30;69.40;;;;;;7380052;19;20026;-89
2022/12/11 09:36:58;;;;;;;34.92;15.45;;;5.30;69.00;;;;;;7383161;19;20019;-89
2022/12/11 09:39:29;;;;;;;37.17;14.98;;;5.30;69.40;;;;;;7385665;19;20014;-89
2022/12/11 09:42:03;;;;;;;;;;;5.20;68.50;;;;;;7380576;19;20027;-89
2022/12/11 09:44:41;;;;;;;41.42;14.63;;;5.20;68.50;;;;;;7404694;19;19922;-89
2022/12/11 09:47:22;;;;;;;40.70;15.23;;;5.10;68.60;;;;;;7389602;19;20035;-89
2022/12/11 09:49:58;;;;;;;35.80;14.23;;;5.10;68.70;;;;;;7398866;19;20039;-89
2022/12/11 09:52:34;;;;;;;38.70;15.80;;;5.10;69.70;;;;;;7389926;19;20014;-89
2022/12/11 09:55:14;;;;;;;54.60;20.67;;;5.20;69.10;;;;;;7386225;19;20141;-89
2022/12/11 09:57:56;;;;;;;222.60;21.23;;;5.10;69.00;;;;;;7390823;19;20022;-90
2022/12/11 10:00:31;;;;;;;40.22;14.63;;;5.10;68.80;;;;;;7389256;19;20011;-89
2022/12/11 10:03:24;;;;;;;28.02;10.77;;;5.00;68.40;;;;;;7383877;19;20086;-90
2022/12/11 10:05:58;;;;;;;39.80;15.88;;;4.80;67.70;;;;;;7384961;19;20019;-90
2022/12/11 10:08:37;;;;;;;36.15;14.60;;;4.40;68.50;;;;;;7411184;19;20023;-91
2022/12/11 10:11:27;;;;;;;30.38;12.35;;;4.40;69.40;;;;;;7383857;19;20067;-91
2022/12/11 10:14:02;;;;;;;29.55;12.50;;;4.50;69.50;;;;;;7382924;19;20043;-90
2022/12/11 10:16:38;;;;;;;30.13;11.60;;;4.60;69.90;;;;;;7383040;19;20028;-89
2022/12/11 10:19:06;;;;;;;37.60;15.25;;;4.70;69.40;;;;;;7385292;19;20018;-90
2022/12/11 10:21:41;;;;;;;33.25;14.65;;;4.80;69.50;;;;;;7392124;19;20032;-91
2022/12/11 10:24:17;;;;;;;34.42;13.75;;;5.00;69.80;;;;;;7395083;19;20408;-91
2022/12/11 10:26:49;;;;;;;28.02;12.90;;;5.10;69.50;;;;;;7425108;19;20007;-91
2022/12/11 10:29:18;;;;;;;37.25;14.55;;;5.20;68.50;;;;;;7400360;19;20018;-91
2022/12/11 10:31:52;;;;;;;35.28;14.00;;;5.20;68.60;;;;;;7400186;19;20338;-93
2022/12/11 10:34:30;;;;;;;31.33;13.30;;;5.30;68.70;;;;;;7390975;19;20094;-91
2022/12/11 10:36:59;;;;;;;35.15;14.68;;;5.30;68.70;;;;;;7389238;19;20015;-91
2022/12/11 10:39:28;;;;;;;33.35;14.63;;;5.40;68.30;;;;;;7386202;19;20019;-91
2022/12/11 10:42:00;;;;;;;33.53;13.52;;;5.50;68.30;;;;;;7382120;19;20023;-89
2022/12/11 10:44:30;;;;;;;31.60;13.52;;;5.50;67.50;;;;;;7412589;19;20120;-91
2022/12/11 10:47:08;;;;;;;32.58;14.02;;;5.60;67.80;;;;;;7392840;19;20015;-90
2022/12/11 10:49:39;;;;;;;38.20;15.57;;;5.60;67.10;;;;;;7385367;19;20011;-90
2022/12/11 10:52:13;;;;;;;39.40;15.73;;;5.60;67.30;;;;;;7392294;19;20003;-91
2022/12/11 10:54:47;;;;;;;38.22;15.68;;;5.60;67.10;;;;;;7380539;19;20027;-90
2022/12/11 10:57:30;;;;;;;41.80;17.33;;;5.60;67.10;;;;;;7384524;19;20018;-90
2022/12/11 11:00:00;;;;;;;34.28;14.90;;;5.60;67.60;;;;;;7382918;19;20050;-90
2022/12/11 11:02:33;;;;;;;42.25;16.75;;;5.60;67.70;;;;;;7403362;19;20010;-90
2022/12/11 11:05:12;;;;;;;42.58;16.02;;;5.70;67.70;;;;;;7380792;19;20030;-90
2022/12/11 11:07:40;;;;;;;35.47;15.35;;;5.70;67.30;;;;;;7380964;19;20427;-89
2022/12/11 11:10:18;;;;;;;43.78;15.50;;;5.80;67.20;;;;;;7375911;19;20018;-90
2022/12/11 11:12:52;;;;;;;43.17;16.15;;;5.80;67.40;;;;;;7383565;19;20011;-90
2022/12/11 11:15:27;;;;;;;35.47;16.17;;;5.90;66.70;;;;;;7398110;19;20003;-90
2022/12/11 11:17:57;;;;;;;45.03;16.98;;;5.80;66.40;;;;;;7405106;19;20022;-88
2022/12/11 11:20:29;;;;;;;39.50;17.30;;;5.80;66.30;;;;;;7414566;19;20419;-90
2022/12/11 11:23:00;;;;;;;46.85;18.33;;;5.80;66.90;;;;;;7375764;19;20014;-90
2022/12/11 11:25:31;;;;;;;39.42;17.02;;;5.80;67.20;;;;;;7377787;19;20018;-91
2022/12/11 11:28:05;;;;;;;42.60;16.90;;;5.90;67.40;;;;;;7376189;19;20086;-88
2022/12/11 11:30:37;;;;;;;38.65;15.95;;;5.90;67.50;;;;;;7376889;19;20015;-89
2022/12/11 11:33:14;;;;;;;35.50;15.60;;;6.00;67.50;;;;;;7382094;19;20712;-87
2022/12/11 11:35:54;;;;;;;42.30;16.02;;;6.00;67.30;;;;;;7407442;19;20056;-85
2022/12/11 11:38:25;;;;;;;35.75;15.52;;;6.10;67.40;;;;;;7390719;19;20010;-86
2022/12/11 11:41:00;;;;;;;34.00;15.25;;;6.10;66.60;;;;;;7387395;19;20040;-86
2022/12/11 11:43:39;;;;;;;35.60;16.88;;;6.00;66.10;;;;;;7387604;19;20098;-84
2022/12/11 11:46:12;;;;;;;35.90;15.98;;;6.10;66.30;;;;;;7400129;19;20007;-86
2022/12/11 11:48:49;;;;;;;37.10;17.95;;;6.00;66.30;;;;;;7393759;19;20014;-89
2022/12/11 11:51:24;;;;;;;34.20;15.82;;;6.00;66.10;;;;;;7388752;19;20025;-86
2022/12/11 11:53:56;;;;;;;36.47;15.95;;;6.00;66.00;;;;;;7379318;19;20026;-87
2022/12/11 11:56:30;;;;;;;37.00;15.75;;;5.90;66.30;;;;;;7406153;19;20054;-85
2022/12/11 11:59:25;;;;;;;39.08;16.17;;;5.90;66.80;;;;;;7384665;19;20014;-87
2022/12/11 12:01:57;;;;;;;39.25;15.30;;;5.90;66.80;;;;;;7383116;19;20019;-86
2022/12/11 12:04:30;;;;;;;42.15;16.05;;;6.00;66.90;;;;;;7397776;19;20007;-88
2022/12/11 12:07:13;;;;;;;30.45;14.73;;;6.00;66.80;;;;;;7401076;19;20018;-87
2022/12/11 12:09:53;;;;;;;31.77;15.02;;;6.00;66.60;;;;;;7399597;19;20027;-86
2022/12/11 12:12:34;;;;;;;35.83;15.45;;;6.00;66.00;;;;;;7399255;19;20021;-88
2022/12/11 12:15:24;;;;;;;36.95;15.68;;;6.00;66.30;;;;;;7403136;19;20029;-85
2022/12/11 12:17:56;;;;;;;37.25;15.48;;;6.00;66.80;;;;;;7400295;19;20852;-87
2022/12/11 12:20:32;;;;;;;36.97;15.52;;;6.10;67.20;;;;;;7410266;19;20014;-88
2022/12/11 12:23:20;;;;;;;37.22;15.75;;;6.10;67.20;;;;;;7390057;19;20027;-86
2022/12/11 12:25:56;;;;;;;37.88;15.40;;;6.10;66.70;;;;;;7383857;19;20031;-85
2022/12/11 12:28:35;;;;;;;37.35;16.40;;;6.20;66.90;;;;;;7391878;19;20018;-89
2022/12/11 12:31:19;;;;;;;40.55;16.33;;;6.20;67.20;;;;;;7400526;19;20013;-90
2022/12/11 12:33:59;;;;;;;41.15;16.27;;;6.20;67.50;;;;;;7401097;19;20010;-88
2022/12/11 12:36:34;;;;;;;32.95;14.27;;;6.20;67.00;;;;;;7401065;19;20050;-89
2022/12/11 12:39:07;;;;;;;38.63;15.05;;;6.20;66.40;;;;;;7402030;19;20026;-88
2022/12/11 12:41:44;;;;;;;42.60;15.38;;;6.10;66.30;;;;;;7422057;19;20006;-88
2022/12/11 12:44:18;;;;;;;32.97;14.68;;;6.10;66.60;;;;;;7406747;19;20010;-87
2022/12/11 12:47:11;;;;;;;33.40;15.55;;;6.10;66.60;;;;;;7406347;19;20010;-90
2022/12/11 12:49:43;;;;;;;44.72;18.35;;;6.20;67.20;;;;;;7396663;19;20010;-87
2022/12/11 12:52:17;;;;;;;40.95;18.10;;;6.20;67.00;;;;;;7396019;19;20130;-82
2022/12/11 12:55:12;;;;;;;41.25;17.52;;;6.20;67.10;;;;;;7386041;19;20011;-84
2022/12/11 12:57:40;;;;;;;45.33;18.58;;;6.20;66.70;;;;;;7381024;19;20025;-82
2022/12/11 13:00:11;;;;;;;46.80;18.02;;;6.20;66.50;;;;;;7377124;19;20019;-84
2022/12/11 13:02:52;;;;;;;33.25;16.00;;;6.30;66.90;;;;;;7413894;19;20015;-85
2022/12/11 13:05:25;;;;;;;42.35;17.13;;;6.30;67.20;;;;;;7395800;19;20022;-86
2022/12/11 13:07:56;;;;;;;35.13;15.50;;;6.30;66.90;;;;;;7390403;19;20054;-87
2022/12/11 13:10:29;;;;;;;42.10;17.35;;;6.30;66.40;;;;;;7390415;19;20015;-88
2022/12/11 13:12:58;;;;;;;38.80;16.00;;;6.40;66.60;;;;;;7384479;19;20019;-85
2022/12/11 13:18:37;;;;;;;34.65;15.70;;;6.50;66.20;;;;;;7385597;19;20043;-86
2022/12/11 13:21:32;;;;;;;37.38;16.25;;;6.50;65.50;;;;;;7379369;19;20018;-87
2022/12/11 13:24:18;;;;;;;38.55;16.02;;;6.50;65.50;;;;;;7384160;19;20620;-91